Login to view Products
 
Monday, December 06, 2021 (12:42 UTC) 12
Al Ain International Airport
ICAO: OMAL
IATA: AAN
  • METAR OMAL 061200Z 27006KT CAVOK 27/10 Q1017 NOSIG=
  • TAF OMAL 061100Z 0612/0718 30010KT 8000 NSC BECMG 0620/0622 08005KT PROB30 0700/0704 4000 HZ BECMG 0708/0710 33010KT=

2
Last Updated:
Wind Dir/Speed:
Temperature:
Rel. Humidity:
Pressure:
Visibility: